Time;durP1;ratioP1;P1;durP2;ratioP2;P2;SDS_P1;SDS_P2;PMS_P1;PMS_P2;Temp;Humidity;BMP_temperature;BMP_pressure;BME280_temperature;BME280_humidity;BME280_pressure;Samples;Min_cycle;Max_cycle;Signal;HPM_P1;HPM_P2
2023/03/10 00:00:37;;;;;;;;;3.67;1.33;;;;;12.18;78.35;98670.03;5077434;28;45454;-65
2023/03/10 00:03:03;;;;;;;;;6.33;3.00;;;;;12.18;78.39;98664.78;5077529;28;45383;-63
2023/03/10 00:05:28;;;;;;;;;4.00;1.67;;;;;12.14;78.05;98654.47;5076920;28;45628;-65
2023/03/10 00:07:54;;;;;;;;;4.00;2.67;;;;;12.19;76.88;98665.63;5073555;28;45364;-66
2023/03/10 00:10:19;;;;;;;;;2.33;2.33;;;;;12.26;76.84;98673.22;5074013;28;45512;-65
2023/03/10 00:12:45;;;;;;;;;7.00;2.00;;;;;12.14;76.17;98660.56;5072717;28;46609;-65
2023/03/10 00:15:12;;;;;;;;;4.67;2.33;;;;;12.17;76.24;98673.59;5073380;28;45565;-64
2023/03/10 00:17:39;;;;;;;;;7.33;3.00;;;;;12.09;75.53;98665.13;5073250;27;45382;-65
2023/03/10 00:20:10;;;;;;;;;4.00;3.00;;;;;12.13;75.77;98661.47;5073647;27;45402;-65
2023/03/10 00:22:40;;;;;;;;;5.33;2.00;;;;;12.19;75.59;98666.47;5075125;28;46612;-65
2023/03/10 00:25:07;;;;;;;;;6.67;2.00;;;;;12.18;76.10;98662.16;5063937;28;45296;-66
2023/03/10 00:27:33;;;;;;;;;6.67;5.00;;;;;12.11;75.51;98647.56;5055987;28;45520;-65
2023/03/10 00:29:58;;;;;;;;;6.67;4.33;;;;;12.15;75.06;98651.78;5048075;27;45559;-65
2023/03/10 00:32:24;;;;;;;;;5.33;4.00;;;;;12.14;75.77;98643.97;5040383;28;46591;-65
2023/03/10 00:34:50;;;;;;;;;2.00;1.67;;;;;12.13;75.43;98643.13;5068804;28;45691;-65
2023/03/10 00:37:15;;;;;;;;;7.00;2.33;;;;;12.11;75.37;98637.06;5073816;28;45434;-65
2023/03/10 00:39:41;;;;;;;;;7.33;2.33;;;;;12.17;75.67;98638.59;5067520;28;45575;-66
2023/03/10 00:42:06;;;;;;;;;6.33;2.67;;;;;12.14;74.97;98622.97;5041110;28;46479;-66
2023/03/10 00:44:32;;;;;;;;;8.00;4.00;;;;;12.16;74.71;98632.50;5057221;28;45480;-65
2023/03/10 00:46:58;;;;;;;;;5.00;1.67;;;;;12.23;74.85;98626.09;5063331;28;45400;-65
2023/03/10 00:49:23;;;;;;;;;6.67;2.33;;;;;12.23;74.49;98628.72;5061250;28;45399;-65
2023/03/10 00:51:49;;;;;;;;;7.00;3.67;;;;;12.18;73.25;98620.16;5077509;28;46019;-66
2023/03/10 00:54:14;;;;;;;;;3.67;2.67;;;;;12.13;74.60;98623.91;5063729;28;45335;-65
2023/03/10 00:56:40;;;;;;;;;10.00;5.67;;;;;12.15;73.87;98636.03;5066464;28;45445;-64
2023/03/10 00:59:05;;;;;;;;;4.00;2.00;;;;;12.16;74.21;98632.50;5076652;27;45683;-66
2023/03/10 01:01:36;;;;;;;;;2.67;2.00;;;;;12.21;74.17;98648.91;5057406;28;45447;-65
2023/03/10 01:04:07;;;;;;;;;4.67;1.67;;;;;12.17;74.56;98633.34;5079323;28;45503;-64
2023/03/10 01:06:35;;;;;;;;;3.67;1.33;;;;;12.18;74.33;98621.94;5066682;28;45522;-64
2023/03/10 01:09:02;;;;;;;;;5.00;1.00;;;;;12.20;74.68;98641.97;5050734;28;45558;-65
2023/03/10 01:11:29;;;;;;;;;5.00;1.33;;;;;12.14;74.57;98625.59;5069998;28;45410;-66
2023/03/10 01:13:57;;;;;;;;;1.00;1.00;;;;;12.23;74.64;98635.75;5044543;28;45616;-66
2023/03/10 01:16:23;;;;;;;;;2.67;1.00;;;;;12.21;74.54;98622.66;5050928;28;45541;-65
2023/03/10 01:18:49;;;;;;;;;4.33;1.33;;;;;12.18;73.34;98601.78;5062165;27;45641;-66
2023/03/10 01:21:19;;;;;;;;;3.00;1.00;;;;;12.14;73.61;98601.97;5058215;28;46322;-67
2023/03/10 01:23:45;;;;;;;;;2.00;1.33;;;;;12.12;73.59;98578.41;5064017;27;45456;-66
2023/03/10 01:26:13;;;;;;;;;2.33;1.00;;;;;12.02;73.62;98572.66;5065510;28;45666;-66
2023/03/10 01:28:39;;;;;;;;;1.00;1.00;;;;;12.02;73.36;98596.28;5058347;28;46005;-65
2023/03/10 01:31:06;;;;;;;;;3.33;0.00;;;;;12.00;73.10;98595.47;5057885;28;47153;-65
2023/03/10 01:33:39;;;;;;;;;1.00;0.67;;;;;12.00;72.88;98597.25;5077699;27;45473;-65
2023/03/10 01:36:09;;;;;;;;;1.67;0.33;;;;;12.04;73.09;98610.19;5077729;28;45735;-65
2023/03/10 01:38:36;;;;;;;;;1.33;1.00;;;;;12.02;73.24;98619.03;5068332;28;45477;-64
2023/03/10 01:41:01;;;;;;;;;2.67;0.67;;;;;11.95;72.84;98613.16;5055026;28;45383;-65
2023/03/10 01:43:39;;;;;;;;;1.00;1.00;;;;;11.91;72.64;98600.22;5060440;28;45409;-66
2023/03/10 01:46:43;;;;;;;;;1.00;1.00;;;;;11.84;72.53;98607.41;5044560;28;45412;-65
2023/03/10 01:49:17;;;;;;;;;3.67;0.00;;;;;11.83;72.15;98605.72;5065507;28;45571;-67
2023/03/10 01:51:49;;;;;;;;;1.67;0.00;;;;;11.78;72.42;98599.78;5075430;27;46047;-63
2023/03/10 01:54:20;;;;;;;;;3.67;1.00;;;;;11.76;72.30;98581.47;5074258;28;45486;-65
2023/03/10 01:56:47;;;;;;;;;4.00;0.00;;;;;11.79;71.44;98584.00;5064832;28;45493;-65
2023/03/10 01:59:13;;;;;;;;;3.33;0.67;;;;;11.76;71.96;98575.38;5072387;28;45461;-64
2023/03/10 02:01:39;;;;;;;;;1.00;0.00;;;;;11.72;70.47;98560.66;5075630;28;45473;-63
2023/03/10 02:04:13;;;;;;;;;4.00;1.00;;;;;11.82;70.35;98576.03;5074869;28;45391;-65
2023/03/10 02:06:40;;;;;;;;;2.00;1.00;;;;;11.82;70.40;98580.41;5077002;27;45484;-70
2023/03/10 02:09:08;;;;;;;;;1.00;1.00;;;;;11.81;71.12;98569.03;5075808;28;45458;-64
2023/03/10 02:11:34;;;;;;;;;1.67;1.00;;;;;11.77;70.88;98550.84;5064419;28;46148;-65
2023/03/10 02:14:03;;;;;;;;;3.33;1.33;;;;;11.75;71.00;98547.47;5062273;27;45486;-65
2023/03/10 02:16:29;;;;;;;;;3.00;1.33;;;;;11.81;70.15;98557.72;5057243;28;45535;-64
2023/03/10 02:18:55;;;;;;;;;3.33;1.67;;;;;11.77;69.69;98567.47;5075508;27;45428;-64
2023/03/10 02:21:33;;;;;;;;;2.67;1.33;;;;;11.76;70.04;98559.66;5073316;27;47689;-64
2023/03/10 02:24:17;;;;;;;;;2.67;1.00;;;;;11.67;70.09;98545.09;5077027;28;45536;-65
2023/03/10 02:27:03;;;;;;;;;7.67;1.67;;;;;11.73;70.19;98544.03;5063031;28;45650;-66
2023/03/10 02:29:37;;;;;;;;;4.33;1.67;;;;;11.72;70.10;98532.69;5073851;27;45564;-65
2023/03/10 02:32:03;;;;;;;;;2.67;1.00;;;;;11.73;69.72;98544.03;5044118;28;46269;-63
2023/03/10 02:34:29;;;;;;;;;4.00;0.00;;;;;11.73;69.38;98533.56;5077183;28;45354;-64
2023/03/10 02:36:55;;;;;;;;;3.00;1.33;;;;;11.75;68.90;98531.72;5072826;27;45442;-65
2023/03/10 02:39:21;;;;;;;;;4.33;1.00;;;;;11.77;69.19;98538.63;5068558;27;45608;-64
2023/03/10 02:42:04;;;;;;;;;6.00;2.00;;;;;11.76;68.70;98528.19;5073331;27;45665;-65
2023/03/10 02:44:32;;;;;;;;;3.67;1.33;;;;;11.77;68.66;98522.00;5069924;28;45488;-65
2023/03/10 02:47:00;;;;;;;;;1.67;1.33;;;;;11.71;67.84;98525.72;5073785;28;45520;-64
2023/03/10 02:49:27;;;;;;;;;0.67;0.00;;;;;11.66;68.58;98518.03;5064901;28;45488;-66
2023/03/10 02:51:58;;;;;;;;;3.00;1.67;;;;;11.73;68.72;98523.06;5073968;28;46117;-65
2023/03/10 02:54:25;;;;;;;;;5.33;0.33;;;;;11.74;68.24;98512.50;5059231;28;45697;-65
2023/03/10 02:56:51;;;;;;;;;4.00;0.00;;;;;11.78;67.92;98511.47;5074704;28;46440;-66
2023/03/10 02:59:17;;;;;;;;;3.33;0.00;;;;;11.77;67.23;98520.25;5062726;28;45446;-66
2023/03/10 03:01:43;;;;;;;;;1.00;1.00;;;;;11.77;67.81;98508.91;5076302;27;46988;-66
2023/03/10 03:04:10;;;;;;;;;1.67;0.00;;;;;11.67;67.12;98504.03;5075065;27;45496;-67
2023/03/10 03:06:38;;;;;;;;;2.00;1.00;;;;;11.68;66.25;98518.84;5062449;28;45556;-66
2023/03/10 03:09:05;;;;;;;;;0.00;0.00;;;;;11.59;67.15;98502.59;5075991;27;45457;-66
2023/03/10 03:11:31;;;;;;;;;2.67;1.00;;;;;11.61;67.03;98519.97;5074009;28;46122;-65
2023/03/10 03:13:58;;;;;;;;;3.00;0.00;;;;;11.44;67.37;98489.16;5074164;28;45604;-66
2023/03/10 03:16:26;;;;;;;;;0.33;0.33;;;;;11.52;67.18;98509.00;5073794;27;45673;-65
2023/03/10 03:18:57;;;;;;;;;1.00;1.00;;;;;11.52;67.79;98503.75;5054929;28;45477;-65
2023/03/10 03:21:23;;;;;;;;;1.67;0.33;;;;;11.52;68.10;98506.38;5056199;28;47631;-64
2023/03/10 03:23:49;;;;;;;;;0.00;0.00;;;;;11.43;67.45;98483.97;5060768;28;45615;-65
2023/03/10 03:26:21;;;;;;;;;1.00;0.00;;;;;11.36;67.59;98488.56;5056067;28;45338;-65
2023/03/10 03:28:55;;;;;;;;;0.00;0.00;;;;;11.44;68.49;98504.88;5074483;27;45461;-65
2023/03/10 03:31:33;;;;;;;;;1.00;1.00;;;;;11.43;68.76;98504.94;5074774;27;47025;-65
2023/03/10 03:34:01;;;;;;;;;3.00;0.00;;;;;11.42;69.13;98508.47;5057349;28;45350;-65
2023/03/10 03:36:28;;;;;;;;;0.67;0.33;;;;;11.45;69.25;98509.19;5074781;28;45549;-66
2023/03/10 03:38:55;;;;;;;;;5.33;3.00;;;;;11.44;69.76;98507.50;5073598;28;45446;-65
2023/03/10 03:41:21;;;;;;;;;2.33;1.00;;;;;11.43;69.60;98497.06;5056579;28;45649;-64
2023/03/10 03:43:47;;;;;;;;;1.33;0.33;;;;;11.45;70.26;98500.50;5037493;28;45383;-66
2023/03/10 03:46:13;;;;;;;;;4.33;1.00;;;;;11.53;69.87;98508.06;5074244;28;45568;-67
2023/03/10 03:48:39;;;;;;;;;6.00;1.00;;;;;11.53;69.65;98511.56;5075531;28;45828;-66
2023/03/10 03:51:06;;;;;;;;;2.00;0.00;;;;;11.55;70.41;98514.09;5075823;27;45425;-65
2023/03/10 03:53:32;;;;;;;;;3.00;1.00;;;;;11.52;70.32;98512.47;5059329;27;45605;-64
2023/03/10 03:55:58;;;;;;;;;2.00;1.00;;;;;11.57;70.37;98525.41;5074424;27;45910;-64
2023/03/10 03:58:24;;;;;;;;;2.67;1.00;;;;;11.53;70.92;98514.19;5073802;27;45296;-67
2023/03/10 04:00:54;;;;;;;;;5.33;2.00;;;;;11.56;71.45;98519.31;5058959;28;46573;-66
2023/03/10 04:03:22;;;;;;;;;1.00;0.67;;;;;11.52;72.05;98519.47;5076874;28;45530;-66
2023/03/10 04:05:49;;;;;;;;;2.00;2.00;;;;;11.53;71.59;98514.19;5074081;27;45457;-65
2023/03/10 04:08:15;;;;;;;;;4.33;1.33;;;;;11.51;72.21;98517.75;5058758;28;45390;-66
2023/03/10 04:10:41;;;;;;;;;3.00;1.00;;;;;11.49;72.18;98514.34;5077719;28;45480;-67
2023/03/10 04:13:07;;;;;;;;;2.00;1.25;;;;;11.49;72.42;98509.13;5055580;28;45743;-66
2023/03/10 04:15:34;;;;;;;;;4.33;1.00;;;;;11.46;72.91;98500.44;5055510;28;45594;-66
2023/03/10 04:18:00;;;;;;;;;1.67;1.00;;;;;11.53;72.75;98524.66;5052582;28;45902;-66
2023/03/10 04:20:27;;;;;;;;;1.00;1.00;;;;;11.43;73.09;98507.56;5065740;28;46108;-65
2023/03/10 04:23:03;;;;;;;;;5.00;1.00;;;;;11.54;73.54;98520.28;5069089;28;46751;-65
2023/03/10 04:25:29;;;;;;;;;6.00;1.00;;;;;11.55;73.19;98521.97;5065043;28;45526;-65
2023/03/10 04:27:58;;;;;;;;;1.67;1.67;;;;;11.48;73.53;98502.16;5057380;28;45399;-65
2023/03/10 04:30:28;;;;;;;;;5.75;2.00;;;;;11.48;74.09;98510.00;5076964;28;45618;-66
2023/03/10 04:32:58;;;;;;;;;3.33;1.00;;;;;11.49;73.70;98514.34;5078479;27;45575;-64
2023/03/10 04:35:24;;;;;;;;;5.00;2.00;;;;;11.52;73.74;98499.34;5060216;28;45481;-65
2023/03/10 04:37:53;;;;;;;;;3.33;0.33;;;;;11.57;73.44;98507.03;5077330;27;45660;-64
2023/03/10 04:40:19;;;;;;;;;2.33;1.00;;;;;11.48;73.02;98492.50;5076658;28;46051;-64
2023/03/10 04:42:44;;;;;;;;;3.00;1.00;;;;;11.53;73.29;98495.84;5063985;28;45441;-66
2023/03/10 04:45:11;;;;;;;;;0.33;0.33;;;;;11.49;72.57;98503.88;5077375;27;45394;-66
2023/03/10 04:47:37;;;;;;;;;2.00;1.00;;;;;11.47;72.25;98517.03;5081477;28;45553;-65
2023/03/10 04:50:05;;;;;;;;;7.67;0.00;;;;;11.43;72.24;98503.16;5076213;27;46703;-67
2023/03/10 04:52:32;;;;;;;;;4.33;1.00;;;;;11.46;71.83;98497.81;5075717;28;45531;-66
2023/03/10 04:54:59;;;;;;;;;0.00;0.00;;;;;11.40;71.69;98491.94;5077325;28;45448;-66
2023/03/10 04:57:24;;;;;;;;;4.00;1.00;;;;;11.41;72.03;98506.75;5077307;27;45515;-64
2023/03/10 04:59:50;;;;;;;;;1.00;0.00;;;;;11.47;71.39;98511.78;5076231;27;46601;-63
2023/03/10 05:02:16;;;;;;;;;1.00;1.00;;;;;11.45;70.87;98522.31;5076232;27;45540;-67
2023/03/10 05:04:42;;;;;;;;;0.33;0.33;;;;;11.42;71.08;98524.22;5076566;28;45554;-64
2023/03/10 05:07:07;;;;;;;;;1.00;0.00;;;;;11.43;71.95;98524.13;5076357;28;45523;-65
2023/03/10 05:09:36;;;;;;;;;2.00;1.00;;;;;11.38;71.77;98519.97;5076762;28;46701;-63
2023/03/10 05:12:05;;;;;;;;;0.67;0.00;;;;;11.41;71.52;98518.13;5057878;28;45772;-63
2023/03/10 05:14:30;;;;;;;;;2.00;0.00;;;;;11.40;71.45;98513.75;5074834;28;45345;-65
2023/03/10 05:16:56;;;;;;;;;0.00;0.00;;;;;11.30;71.16;98503.69;5076813;28;45520;-65
2023/03/10 05:19:22;;;;;;;;;2.00;0.00;;;;;11.28;71.43;98495.88;5074689;28;47747;-65
2023/03/10 05:21:47;;;;;;;;;0.00;0.00;;;;;11.37;71.35;98518.28;5057538;28;46142;-63
2023/03/10 05:24:13;;;;;;;;;0.00;0.00;;;;;11.25;71.39;98503.84;5054286;28;45418;-65
2023/03/10 05:26:39;;;;;;;;;0.00;0.00;;;;;11.27;71.25;98523.00;5066134;27;45529;-65
2023/03/10 05:29:04;;;;;;;;;1.67;0.00;;;;;11.24;70.71;98528.34;5077492;27;45912;-64
2023/03/10 05:31:30;;;;;;;;;0.00;0.00;;;;;11.24;70.90;98531.81;5076914;28;45462;-65
2023/03/10 05:33:56;;;;;;;;;0.67;0.00;;;;;11.19;71.39;98535.50;5076358;28;45323;-66
2023/03/10 05:36:22;;;;;;;;;0.00;0.00;;;;;11.17;71.21;98540.78;5050537;28;45474;-63
2023/03/10 05:38:48;;;;;;;;;0.00;0.00;;;;;11.11;71.16;98527.09;5066359;28;45523;-65
2023/03/10 05:41:15;;;;;;;;;1.00;0.00;;;;;11.12;71.40;98536.63;5045829;28;45537;-64
2023/03/10 05:43:40;;;;;;;;;0.00;0.00;;;;;11.13;71.71;98549.69;5071747;28;45487;-66
2023/03/10 05:46:07;;;;;;;;;0.00;0.00;;;;;11.09;71.65;98527.13;5064002;28;45491;-64
2023/03/10 05:48:33;;;;;;;;;2.00;0.00;;;;;11.09;71.53;98536.75;5062947;28;46304;-64
2023/03/10 05:51:04;;;;;;;;;1.67;0.00;;;;;11.03;71.61;98532.56;5071806;27;45370;-64
2023/03/10 05:53:36;;;;;;;;;1.33;0.00;;;;;11.04;71.67;98529.91;5060621;28;45481;-65
2023/03/10 05:56:11;;;;;;;;;0.00;0.00;;;;;11.02;72.00;98508.16;5065672;28;45548;-65
2023/03/10 05:58:37;;;;;;;;;0.00;0.00;;;;;10.96;72.47;98518.84;5069353;27;46579;-66
2023/03/10 06:01:03;;;;;;;;;0.00;0.00;;;;;11.00;72.49;98533.53;5056461;28;45438;-64
2023/03/10 06:03:28;;;;;;;;;1.00;0.00;;;;;11.00;72.18;98525.69;5053720;28;45514;-65
2023/03/10 06:05:55;;;;;;;;;1.00;0.00;;;;;10.87;72.42;98519.16;5059804;28;45719;-65
2023/03/10 06:08:22;;;;;;;;;0.00;0.00;;;;;10.91;72.31;98544.31;5059998;28;46180;-63
2023/03/10 06:10:48;;;;;;;;;0.00;0.00;;;;;10.81;72.67;98538.56;5056937;28;46366;-64
2023/03/10 06:13:13;;;;;;;;;0.00;0.00;;;;;10.79;72.61;98544.75;5068780;28;45503;-65
2023/03/10 06:15:39;;;;;;;;;0.00;0.00;;;;;10.90;72.44;98554.88;5065713;28;45348;-64
2023/03/10 06:18:04;;;;;;;;;1.75;0.00;;;;;10.82;73.02;98549.91;5059011;28;45939;-63
2023/03/10 06:20:31;;;;;;;;;1.00;0.00;;;;;10.88;73.11;98559.31;5055249;28;45464;-64
2023/03/10 06:22:56;;;;;;;;;0.00;0.00;;;;;10.83;73.09;98562.94;5070848;28;45398;-67
2023/03/10 06:25:22;;;;;;;;;0.00;0.00;;;;;10.75;73.29;98548.41;5075529;28;45456;-64
2023/03/10 06:27:47;;;;;;;;;0.00;0.00;;;;;10.84;73.37;98566.38;5068060;28;46259;-65
2023/03/10 06:30:14;;;;;;;;;1.00;0.00;;;;;10.79;73.56;98556.06;5067461;28;45430;-64
2023/03/10 06:32:39;;;;;;;;;0.00;0.00;;;;;10.91;73.60;98572.28;5056302;28;45451;-64
2023/03/10 06:35:05;;;;;;;;;0.00;0.00;;;;;10.90;73.10;98574.06;5060415;28;46175;-64
2023/03/10 06:37:31;;;;;;;;;0.00;0.00;;;;;10.86;73.58;98576.81;5065996;27;46612;-64
2023/03/10 06:39:57;;;;;;;;;0.00;0.00;;;;;10.70;73.74;98561.66;5054620;28;45454;-66
2023/03/10 06:42:22;;;;;;;;;0.00;0.00;;;;;10.81;74.15;98569.97;5054617;28;45474;-64
2023/03/10 06:44:48;;;;;;;;;0.00;0.00;;;;;10.85;74.10;98594.31;5055153;28;45685;-65
2023/03/10 06:47:14;;;;;;;;;0.00;0.00;;;;;10.82;74.07;98597.88;5055560;28;45789;-65
2023/03/10 06:49:39;;;;;;;;;0.00;0.00;;;;;10.79;74.17;98600.59;5058742;28;45712;-65
2023/03/10 06:52:05;;;;;;;;;0.00;0.00;;;;;10.80;74.47;98601.47;5057352;28;45388;-64
2023/03/10 06:54:31;;;;;;;;;0.00;0.00;;;;;10.78;74.46;98595.41;5049023;28;45468;-64
2023/03/10 06:56:57;;;;;;;;;1.00;0.00;;;;;10.74;74.57;98604.28;5056139;28;46376;-65
2023/03/10 06:59:26;;;;;;;;;1.00;0.00;;;;;10.81;74.22;98611.03;5054356;28;45752;-64
2023/03/10 07:01:53;;;;;;;;;0.00;0.00;;;;;10.86;74.28;98632.66;5048856;28;45545;-64
2023/03/10 07:04:22;;;;;;;;;0.00;0.00;;;;;10.84;74.30;98629.25;5054068;28;45587;-64
2023/03/10 07:06:47;;;;;;;;;0.00;0.00;;;;;10.81;74.92;98647.69;5054125;28;46576;-66
2023/03/10 07:09:13;;;;;;;;;0.00;0.00;;;;;10.78;74.90;98635.56;5056310;28;45701;-65
2023/03/10 07:11:39;;;;;;;;;0.00;0.00;;;;;10.81;75.00;98648.53;5055622;28;45387;-64
2023/03/10 07:14:04;;;;;;;;;0.00;0.00;;;;;10.80;75.31;98652.06;5054321;28;45370;-65
2023/03/10 07:16:30;;;;;;;;;0.00;0.00;;;;;10.82;75.16;98659.88;5053924;28;45544;-64
2023/03/10 07:18:55;;;;;;;;;1.00;0.00;;;;;10.82;75.30;98675.59;5037119;28;45445;-66
2023/03/10 07:21:21;;;;;;;;;0.00;0.00;;;;;10.76;75.16;98673.16;5058064;28;45517;-65
2023/03/10 07:23:47;;;;;;;;;0.00;0.00;;;;;10.82;75.57;98675.59;5058458;28;45533;-64
2023/03/10 07:26:14;;;;;;;;;0.00;0.00;;;;;10.83;75.05;98693.00;5055544;28;45504;-65
2023/03/10 07:28:40;;;;;;;;;1.00;0.00;;;;;10.82;75.77;98678.22;5074078;27;45263;-67
2023/03/10 07:31:08;;;;;;;;;0.00;0.00;;;;;10.80;74.86;98688.72;5055482;27;45441;-66
2023/03/10 07:33:34;;;;;;;;;1.00;0.00;;;;;10.90;75.27;98718.09;5059483;28;45403;-65
2023/03/10 07:36:07;;;;;;;;;0.00;0.00;;;;;10.92;75.61;98712.81;5073767;27;46897;-66
2023/03/10 07:38:34;;;;;;;;;0.00;0.00;;;;;10.81;74.99;98700.06;5073818;28;45461;-65
2023/03/10 07:41:00;;;;;;;;;0.00;0.00;;;;;10.93;74.76;98725.84;5074493;28;45505;-64
2023/03/10 07:43:25;;;;;;;;;0.50;0.25;;;;;10.94;74.63;98732.81;5059939;28;45429;-67
2023/03/10 07:45:51;;;;;;;;;1.00;0.00;;;;;10.89;74.31;98742.59;5072519;28;46551;-66
2023/03/10 07:48:16;;;;;;;;;0.00;0.00;;;;;10.91;74.72;98769.56;5073572;28;45799;-65
2023/03/10 07:50:42;;;;;;;;;0.00;0.00;;;;;10.91;75.72;98777.41;5074058;28;45561;-69
2023/03/10 07:53:07;;;;;;;;;0.00;0.00;;;;;10.97;73.97;98798.19;5054931;28;45508;-66
2023/03/10 07:55:33;;;;;;;;;0.00;0.00;;;;;11.00;73.46;98787.63;5073559;28;46145;-65
2023/03/10 07:58:01;;;;;;;;;0.00;0.00;;;;;10.99;72.88;98804.25;5077199;28;45533;-63
2023/03/10 08:00:27;;;;;;;;;1.00;0.00;;;;;10.89;71.93;98776.63;5078116;28;45382;-66
2023/03/10 08:02:52;;;;;;;;;0.00;0.00;;;;;10.92;71.67;98810.59;5078019;28;45370;-64
2023/03/10 08:05:18;;;;;;;;;0.00;0.00;;;;;10.89;71.16;98813.31;5074252;28;47681;-65
2023/03/10 08:07:44;;;;;;;;;0.00;0.00;;;;;10.90;70.79;98835.97;5073745;28;45580;-64
2023/03/10 08:10:10;;;;;;;;;0.00;0.00;;;;;10.94;70.78;98850.69;5073896;28;45445;-63
2023/03/10 08:12:36;;;;;;;;;0.00;0.00;;;;;10.90;70.21;98835.97;5073624;27;45286;-66
2023/03/10 08:15:03;;;;;;;;;0.67;0.00;;;;;10.87;69.89;98835.19;5073776;28;45431;-64
2023/03/10 08:17:29;;;;;;;;;0.00;0.00;;;;;10.87;69.33;98822.09;5074292;28;45398;-64
2023/03/10 08:19:57;;;;;;;;;0.00;0.00;;;;;10.91;69.01;98852.53;5074015;28;45350;-66
2023/03/10 08:22:22;;;;;;;;;0.75;0.00;;;;;10.71;69.14;98830.41;5069227;28;45552;-66
2023/03/10 08:24:48;;;;;;;;;0.00;0.00;;;;;10.92;68.61;98876.06;5073937;28;46747;-67
2023/03/10 08:27:13;;;;;;;;;0.50;0.50;;;;;10.95;69.07;98893.44;5072889;28;45381;-66
2023/03/10 08:29:39;;;;;;;;;0.00;0.00;;;;;11.00;68.89;98915.13;5059225;28;45544;-67
2023/03/10 08:32:05;;;;;;;;;0.00;0.00;;;;;10.95;68.76;98906.56;5076667;27;45396;-65
2023/03/10 08:34:32;;;;;;;;;0.00;0.00;;;;;10.91;68.84;98915.38;5077532;28;46157;-66
2023/03/10 08:36:59;;;;;;;;;0.00;0.00;;;;;10.90;68.74;98925.00;5077408;28;45539;-65
2023/03/10 08:39:26;;;;;;;;;0.00;0.00;;;;;11.03;69.59;98946.47;5077075;28;45434;-68
2023/03/10 08:41:51;;;;;;;;;0.00;0.00;;;;;11.06;68.59;98954.25;5071833;28;45688;-66
2023/03/10 08:44:18;;;;;;;;;0.00;0.00;;;;;10.94;68.39;98959.81;5064057;28;45441;-66
2023/03/10 08:46:48;;;;;;;;;0.00;0.00;;;;;10.90;68.64;98955.59;5073195;28;45414;-66
2023/03/10 08:49:15;;;;;;;;;0.00;0.00;;;;;10.97;68.42;98978.94;5054933;28;45364;-63
2023/03/10 08:51:41;;;;;;;;;0.50;0.50;;;;;11.01;68.23;98982.34;5073471;27;45447;-66
2023/03/10 08:54:09;;;;;;;;;0.00;0.00;;;;;10.93;67.59;98976.44;5073045;28;45847;-66
2023/03/10 08:56:34;;;;;;;;;0.00;0.00;;;;;10.97;67.88;98997.28;5063283;28;45559;-63
2023/03/10 08:59:00;;;;;;;;;0.67;0.67;;;;;11.01;67.57;98985.81;5055193;28;45404;-65
2023/03/10 09:01:29;;;;;;;;;0.00;0.00;;;;;10.96;67.16;98948.44;5061109;28;45478;-66
2023/03/10 09:03:55;;;;;;;;;0.00;0.00;;;;;10.97;67.22;99012.16;5060903;28;46517;-66
2023/03/10 09:06:21;;;;;;;;;0.50;0.00;;;;;10.93;67.28;99007.88;5057193;28;45593;-64
2023/03/10 09:08:57;;;;;;;;;0.00;0.00;;;;;10.95;67.00;99012.19;5055118;27;45651;-64
2023/03/10 09:11:30;;;;;;;;;0.00;0.00;;;;;10.97;67.13;99033.09;5056331;28;45442;-65
2023/03/10 09:13:57;;;;;;;;;1.00;0.00;;;;;10.91;66.38;99018.41;5057253;28;45475;-67
2023/03/10 09:16:27;;;;;;;;;2.33;1.00;;;;;10.96;68.42;99027.00;5067513;28;45408;-67
2023/03/10 09:18:55;;;;;;;;;0.00;0.00;;;;;10.91;65.88;99041.97;5058605;28;45620;-66
2023/03/10 09:21:21;;;;;;;;;0.00;0.00;;;;;10.88;66.39;99076.09;5056314;28;45626;-65
2023/03/10 09:23:49;;;;;;;;;0.00;0.00;;;;;10.81;66.46;99057.06;5072727;28;45618;-63
2023/03/10 09:26:15;;;;;;;;;1.25;0.00;;;;;10.78;65.89;99079.88;5070023;28;45368;-66
2023/03/10 09:28:41;;;;;;;;;0.00;0.00;;;;;10.79;66.38;99111.25;5069074;28;45757;-66
2023/03/10 09:31:08;;;;;;;;;1.25;0.00;;;;;10.85;70.85;99105.00;5061219;28;45493;-65
2023/03/10 09:33:34;;;;;;;;;0.00;0.00;;;;;11.02;69.59;99101.94;5068143;28;45500;-65
2023/03/10 09:36:03;;;;;;;;;0.33;0.33;;;;;11.13;67.87;99117.38;5064762;28;45514;-64
2023/03/10 09:38:30;;;;;;;;;1.00;1.00;;;;;11.20;65.09;99132.91;5077832;27;45528;-65
2023/03/10 09:40:58;;;;;;;;;0.00;0.00;;;;;11.09;64.05;99145.44;5063044;28;45530;-67
2023/03/10 09:43:26;;;;;;;;;0.00;0.00;;;;;10.95;63.72;99148.41;5052124;28;46647;-64
2023/03/10 09:45:55;;;;;;;;;1.00;0.00;;;;;10.99;64.67;99170.16;5051928;28;45430;-67
2023/03/10 09:48:29;;;;;;;;;0.00;0.00;;;;;10.90;63.87;99154.66;5061051;28;45328;-66
2023/03/10 09:51:00;;;;;;;;;0.00;0.00;;;;;10.81;63.62;99121.69;5060004;28;45480;-67
2023/03/10 09:53:52;;;;;;;;;2.00;0.00;;;;;10.79;63.13;99152.28;5061703;28;45525;-66
2023/03/10 09:56:27;;;;;;;;;2.00;0.33;;;;;10.66;62.83;99175.28;5059735;28;46058;-67
2023/03/10 09:59:27;;;;;;;;;1.00;0.00;;;;;10.71;63.06;99201.38;5044513;28;45474;-66
2023/03/10 10:01:56;;;;;;;;;1.00;1.00;;;;;10.72;62.89;99208.31;5060062;28;45651;-66
2023/03/10 10:04:38;;;;;;;;;0.75;0.00;;;;;10.72;61.41;99198.69;5056106;28;47625;-65
2023/03/10 10:07:14;;;;;;;;;1.25;1.25;;;;;10.66;61.76;99218.97;5060870;28;45526;-67
2023/03/10 10:09:52;;;;;;;;;2.00;1.00;;;;;10.70;61.45;99212.72;5042859;28;45467;-66
2023/03/10 10:12:23;;;;;;;;;2.00;1.50;;;;;10.65;61.71;99248.63;5057675;28;45428;-66
2023/03/10 10:15:05;;;;;;;;;2.75;1.50;;;;;10.62;60.82;99239.09;5054388;28;45485;-66
2023/03/10 10:17:49;;;;;;;;;1.25;1.00;;;;;10.58;60.96;99269.72;5054876;28;45448;-65
2023/03/10 10:20:30;;;;;;;;;1.50;1.00;;;;;10.63;59.53;99259.16;5056375;28;45787;-69
2023/03/10 10:22:56;;;;;;;;;3.00;0.50;;;;;10.54;59.30;99254.97;5058705;28;45739;-66
2023/03/10 10:25:30;;;;;;;;;1.25;1.25;;;;;10.56;59.67;99279.38;5055497;28;46271;-66
2023/03/10 10:27:57;;;;;;;;;0.33;0.33;;;;;10.47;59.71;99289.19;5054785;28;45513;-68
2023/03/10 10:30:26;;;;;;;;;1.00;1.00;;;;;10.50;60.76;99289.09;5062020;28;45423;-66
2023/03/10 10:32:59;;;;;;;;;2.00;0.75;;;;;10.54;60.57;99312.56;5057360;28;45331;-65
2023/03/10 10:35:28;;;;;;;;;1.25;1.00;;;;;10.62;59.45;99320.25;5054738;28;45888;-66
2023/03/10 10:38:01;;;;;;;;;2.00;1.00;;;;;10.58;59.66;99314.25;5052998;28;45459;-67
2023/03/10 10:40:29;;;;;;;;;1.00;0.75;;;;;10.64;58.87;99301.91;5057562;28;45364;-67
2023/03/10 10:42:59;;;;;;;;;4.50;1.75;;;;;10.63;58.14;99340.34;5052957;28;45481;-66
2023/03/10 10:45:35;;;;;;;;;1.00;1.00;;;;;10.62;56.49;99328.13;5057696;28;47967;-65
2023/03/10 10:48:01;;;;;;;;;1.75;1.00;;;;;10.67;55.91;99326.25;5070266;28;45591;-66
2023/03/10 10:50:32;;;;;;;;;4.00;1.00;;;;;11.27;54.58;99359.03;5053676;28;45466;-67
2023/03/10 10:53:20;;;;;;;;;1.25;1.00;;;;;11.29;54.58;99356.34;5065544;28;45462;-66
2023/03/10 10:55:59;;;;;;;;;4.50;1.00;;;;;11.16;53.92;99367.13;5072816;28;46216;-66
2023/03/10 10:58:34;;;;;;;;;2.00;1.00;;;;;11.14;53.83;99362.81;5058747;28;45863;-66
2023/03/10 11:01:13;;;;;;;;;0.75;0.75;;;;;11.13;53.51;99388.16;5074132;28;45517;-63
2023/03/10 11:03:46;;;;;;;;;4.25;2.00;;;;;11.09;53.33;99389.13;5073694;28;45362;-65
2023/03/10 11:06:19;;;;;;;;;0.00;0.00;;;;;11.01;53.00;99410.25;5068724;27;47569;-67
2023/03/10 11:08:49;;;;;;;;;2.75;0.00;;;;;11.00;52.93;99412.88;5059462;28;45451;-64
2023/03/10 11:11:30;;;;;;;;;3.00;1.00;;;;;10.95;53.37;99425.22;5060331;27;45341;-66
2023/03/10 11:14:12;;;;;;;;;2.00;1.00;;;;;10.93;54.06;99425.25;5061011;28;45590;-64
2023/03/10 11:16:56;;;;;;;;;8.25;1.00;;;;;10.90;53.71;99420.06;5059795;28;46479;-66
2023/03/10 11:19:30;;;;;;;;;3.25;0.75;;;;;10.83;53.61;99427.19;5072154;28;45324;-67
2023/03/10 11:22:12;;;;;;;;;5.50;1.25;;;;;10.71;53.75;99421.34;5048847;28;45439;-67
2023/03/10 11:24:49;;;;;;;;;1.00;1.00;;;;;10.81;54.01;99438.59;5059383;27;45477;-66
2023/03/10 11:27:33;;;;;;;;;4.50;1.50;;;;;10.93;54.26;99453.19;5058264;28;45560;-67
2023/03/10 11:30:18;;;;;;;;;5.00;1.00;;;;;10.91;53.07;99441.88;5059284;28;45292;-66
2023/03/10 11:33:02;;;;;;;;;2.50;1.00;;;;;11.10;52.38;99435.38;5053721;27;45636;-65
2023/03/10 11:35:36;;;;;;;;;6.50;2.00;;;;;11.17;51.00;99457.94;5071045;28;45410;-65
2023/03/10 11:38:17;;;;;;;;;0.00;0.00;;;;;11.36;51.44;99450.53;5059767;28;45466;-66
2023/03/10 11:40:55;;;;;;;;;1.75;1.75;;;;;11.51;50.69;99454.59;5048466;28;45693;-66